Time;durP1;ratioP1;P1;durP2;ratioP2;P2;SDS_P1;SDS_P2;PMS_P1;PMS_P2;Temp;Humidity;BMP_temperature;BMP_pressure;BME280_temperature;BME280_humidity;BME280_pressure;Samples;Min_cycle;Max_cycle;Signal;HPM_P1;HPM_P2
2022/03/31 00:01:21;;;;;;;;;;;;;;;;;;5010376;28;19982;-62
2022/03/31 00:03:48;;;;;;;;;;;;;;;;;;5008509;28;20046;-63
2022/03/31 00:06:14;;;;;;;;;;;;;;;;;;5008956;28;19998;-64
2022/03/31 00:08:41;;;;;;;;;;;;;;;;;;5010609;28;20451;-63
2022/03/31 00:11:08;;;;;;;;;;;;;;;;;;5010333;28;19974;-64
2022/03/31 00:13:34;;;;;;;;;;;;;;;;;;5009794;28;19976;-66
2022/03/31 00:16:03;;;;;;;;;;;;;;;;;;5007524;28;20202;-65
2022/03/31 00:18:29;;;;;;;;;;;;;;;;;;5007773;28;19982;-65
2022/03/31 00:20:55;;;;;;;;;;;;;;;;;;5009758;28;20471;-66
2022/03/31 00:23:22;;;;;;;;;;;;;;;;;;5004143;28;19989;-65
2022/03/31 00:25:48;;;;;;;;;;;;;;;;;;4999684;28;20490;-66
2022/03/31 00:28:14;;;;;;;;;;;;;;;;;;5008799;28;20470;-65
2022/03/31 00:30:41;;;;;;;;;;;;;;;;;;5007355;28;19972;-64
2022/03/31 00:33:08;;;;;;;;;;;;;;;;;;5005157;28;19978;-64
2022/03/31 00:35:34;;;;;;;;;;;;;;;;;;5000284;28;20017;-63
2022/03/31 00:38:01;;;;;;;;;;;;;;;;;;5007501;28;20415;-63
2022/03/31 00:40:27;;;;;;;;;;;;;;;;;;5005498;28;19979;-64
2022/03/31 00:42:54;;;;;;;;;;;;;;;;;;5003893;28;19975;-62
2022/03/31 00:45:23;;;;;;;;;;;;;;;;;;5010243;28;20087;-62
2022/03/31 00:47:49;;;;;;;;;;;;;;;;;;5004081;28;20406;-60
2022/03/31 00:50:17;;;;;;;;;;;;;;;;;;5010335;28;19981;-62
2022/03/31 00:52:43;;;;;;;;;;;;;;;;;;5005599;28;20444;-60
2022/03/31 00:55:09;;;;;;;;;;;;;;;;;;5002976;28;20367;-60
2022/03/31 00:57:35;;;;;;;;;;;;;;;;;;5002522;28;19975;-59
2022/03/31 01:00:02;;;;;;;;;;;;;;;;;;5003889;28;20471;-60
2022/03/31 01:02:28;;;;;;;;;;;;;;;;;;5005874;28;20022;-63
2022/03/31 01:04:54;;;;;;;;;;;;;;;;;;5010704;28;19988;-62
2022/03/31 01:07:20;;;;;;;;;;;;;;;;;;5008857;28;19987;-63
2022/03/31 01:09:46;;;;;;;;;;;;;;;;;;5009249;28;20030;-61
2022/03/31 01:12:12;;;;;;;;;;;;;;;;;;5006496;28;19989;-60
2022/03/31 01:14:39;;;;;;;;;;;;;;;;;;5009531;28;19989;-61
2022/03/31 01:17:05;;;;;;;;;;;;;;;;;;5006583;28;19979;-61
2022/03/31 01:19:31;;;;;;;;;;;;;;;;;;5002859;28;19979;-62
2022/03/31 01:21:58;;;;;;;;;;;;;;;;;;5007373;28;19975;-61
2022/03/31 01:24:24;;;;;;;;;;;;;;;;;;5010114;28;19991;-61
2022/03/31 01:26:50;;;;;;;;;;;;;;;;;;5005996;28;19986;-63
2022/03/31 01:29:16;;;;;;;;;;;;;;;;;;5005078;28;20436;-62
2022/03/31 01:31:42;;;;;;;;;;;;;;;;;;5002392;28;20376;-62
2022/03/31 01:34:08;;;;;;;;;;;;;;;;;;5005694;28;20465;-61
2022/03/31 01:36:34;;;;;;;;;;;;;;;;;;5001447;28;19976;-62
2022/03/31 01:39:01;;;;;;;;;;;;;;;;;;5007546;28;20355;-62
2022/03/31 01:41:27;;;;;;;;;;;;;;;;;;5003843;28;20442;-62
2022/03/31 01:43:53;;;;;;;;;;;;;;;;;;5009253;28;19979;-62
2022/03/31 01:46:19;;;;;;;;;;;;;;;;;;5004113;28;19985;-65
2022/03/31 01:48:45;;;;;;;;;;;;;;;;;;5010340;28;19995;-71
2022/03/31 01:51:12;;;;;;;;;;;;;;;;;;5009440;28;19972;-63
2022/03/31 01:53:38;;;;;;;;;;;;;;;;;;5009401;28;20020;-64
2022/03/31 01:56:04;;;;;;;;;;;;;;;;;;5010910;28;20052;-64
2022/03/31 01:58:30;;;;;;;;;;;;;;;;;;5012708;28;19971;-64
2022/03/31 02:00:57;;;;;;;;;;;;;;;;;;5011595;28;19976;-65
2022/03/31 02:03:23;;;;;;;;;;;;;;;;;;5008298;28;20404;-66
2022/03/31 02:05:50;;;;;;;;;;;;;;;;;;5012172;28;19992;-65
2022/03/31 02:08:16;;;;;;;;;;;;;;;;;;5010390;28;19995;-67
2022/03/31 02:10:43;;;;;;;;;;;;;;;;;;5013146;28;19978;-67
2022/03/31 02:13:09;;;;;;;;;;;;;;;;;;5009497;28;19984;-67
2022/03/31 02:15:37;;;;;;;;;;;;;;;;;;5007627;28;19986;-67
2022/03/31 02:18:04;;;;;;;;;;;;;;;;;;5008676;28;20018;-68
2022/03/31 02:20:30;;;;;;;;;;;;;;;;;;5012313;28;20529;-68
2022/03/31 02:22:57;;;;;;;;;;;;;;;;;;5011571;28;20060;-68
2022/03/31 02:25:23;;;;;;;;;;;;;;;;;;5008965;28;20078;-66
2022/03/31 02:27:49;;;;;;;;;;;;;;;;;;5010381;28;19993;-67
2022/03/31 02:30:15;;;;;;;;;;;;;;;;;;5012856;28;19976;-67
2022/03/31 02:32:42;;;;;;;;;;;;;;;;;;5010759;28;19951;-67
2022/03/31 02:35:09;;;;;;;;;;;;;;;;;;4999038;28;20488;-68
2022/03/31 02:37:35;;;;;;;;;;;;;;;;;;5006544;28;19970;-64
2022/03/31 02:40:03;;;;;;;;;;;;;;;;;;5001569;28;19974;-61
2022/03/31 02:42:29;;;;;;;;;;;;;;;;;;5006971;28;19967;-62
2022/03/31 02:44:55;;;;;;;;;;;;;;;;;;5008319;28;20003;-69
2022/03/31 02:47:21;;;;;;;;;;;;;;;;;;5002496;28;20743;-69
2022/03/31 02:49:47;;;;;;;;;;;;;;;;;;5004113;28;19982;-68
2022/03/31 02:52:15;;;;;;;;;;;;;;;;;;5002972;28;20449;-68
2022/03/31 02:57:24;;;;;;;;;;;;;;;;;;5003592;28;19973;-68
2022/03/31 02:59:52;;;;;;;;;;;;;;;;;;5012801;28;19973;-66
2022/03/31 03:02:18;;;;;;;;;;;;;;;;;;5010869;28;20339;-65
2022/03/31 03:04:44;;;;;;;;;;;;;;;;;;5012042;28;20369;-65
2022/03/31 03:07:11;;;;;;;;;;;;;;;;;;5000711;28;20453;-64
2022/03/31 03:09:37;;;;;;;;;;;;;;;;;;5012033;28;19971;-63
2022/03/31 03:12:03;;;;;;;;;;;;;;;;;;5007778;28;20015;-63
2022/03/31 03:14:29;;;;;;;;;;;;;;;;;;5012369;28;20084;-64
2022/03/31 03:16:55;;;;;;;;;;;;;;;;;;5003930;28;20079;-64
2022/03/31 03:19:21;;;;;;;;;;;;;;;;;;4998075;28;19976;-66
2022/03/31 03:21:48;;;;;;;;;;;;;;;;;;5007612;28;19968;-64
2022/03/31 03:24:14;;;;;;;;;;;;;;;;;;5011865;28;20342;-66
2022/03/31 03:26:40;;;;;;;;;;;;;;;;;;5005549;28;19987;-66
2022/03/31 03:29:06;;;;;;;;;;;;;;;;;;5008425;28;20084;-65
2022/03/31 03:31:32;;;;;;;;;;;;;;;;;;5006552;28;19977;-65
2022/03/31 03:33:58;;;;;;;;;;;;;;;;;;5007264;28;19997;-65
2022/03/31 03:36:27;;;;;;;;;;;;;;;;;;5006279;28;20077;-66
2022/03/31 03:38:53;;;;;;;;;;;;;;;;;;5001686;28;20243;-65
2022/03/31 03:41:19;;;;;;;;;;;;;;;;;;5000507;28;19968;-66
2022/03/31 03:43:46;;;;;;;;;;;;;;;;;;5006846;28;19980;-65
2022/03/31 03:46:12;;;;;;;;;;;;;;;;;;5010640;28;20239;-68
2022/03/31 03:48:39;;;;;;;;;;;;;;;;;;4999561;28;19992;-66
2022/03/31 03:51:05;;;;;;;;;;;;;;;;;;5000878;28;19972;-66
2022/03/31 03:53:31;;;;;;;;;;;;;;;;;;5008771;28;20428;-69
2022/03/31 03:55:57;;;;;;;;;;;;;;;;;;5010442;28;19981;-68
2022/03/31 03:58:23;;;;;;;;;;;;;;;;;;5009609;28;19973;-67
2022/03/31 04:00:49;;;;;;;;;;;;;;;;;;5005093;28;19972;-67
2022/03/31 04:03:15;;;;;;;;;;;;;;;;;;5010152;28;19982;-67
2022/03/31 04:05:42;;;;;;;;;;;;;;;;;;5010067;28;19992;-69
2022/03/31 04:08:08;;;;;;;;;;;;;;;;;;5004723;28;19983;-67
2022/03/31 04:10:34;;;;;;;;;;;;;;;;;;5004957;28;19976;-67
2022/03/31 04:13:00;;;;;;;;;;;;;;;;;;5005678;28;19972;-69
2022/03/31 04:15:27;;;;;;;;;;;;;;;;;;5005483;28;19993;-67
2022/03/31 04:17:54;;;;;;;;;;;;;;;;;;5004725;28;20317;-66
2022/03/31 04:20:20;;;;;;;;;;;;;;;;;;5008437;28;19946;-64
2022/03/31 04:22:47;;;;;;;;;;;;;;;;;;5008220;28;19976;-65
2022/03/31 04:25:13;;;;;;;;;;;;;;;;;;5009147;28;20383;-65
2022/03/31 04:27:40;;;;;;;;;;;;;;;;;;5005381;28;19970;-64
2022/03/31 04:30:06;;;;;;;;;;;;;;;;;;5007647;28;19956;-65
2022/03/31 04:32:32;;;;;;;;;;;;;;;;;;5009118;28;19932;-65
2022/03/31 04:34:58;;;;;;;;;;;;;;;;;;5011270;28;19932;-65
2022/03/31 04:37:24;;;;;;;;;;;;;;;;;;5009667;28;19929;-64
2022/03/31 04:39:50;;;;;;;;;;;;;;;;;;4992637;28;19933;-66
2022/03/31 04:42:16;;;;;;;;;;;;;;;;;;5004273;28;19926;-66
2022/03/31 04:44:43;;;;;;;;;;;;;;;;;;5011128;28;20016;-65
2022/03/31 04:47:11;;;;;;;;;;;;;;;;;;5005012;28;19925;-65
2022/03/31 04:49:37;;;;;;;;;;;;;;;;;;5001515;28;20016;-65
2022/03/31 04:52:04;;;;;;;;;;;;;;;;;;5007571;28;19930;-65
2022/03/31 04:54:30;;;;;;;;;;;;;;;;;;5008506;28;19925;-65
2022/03/31 04:56:56;;;;;;;;;;;;;;;;;;5006177;28;19956;-66
2022/03/31 04:59:22;;;;;;;;;;;;;;;;;;5005248;28;19926;-64
2022/03/31 05:01:49;;;;;;;;;;;;;;;;;;5006514;28;19930;-65
2022/03/31 05:04:16;;;;;;;;;;;;;;;;;;5010615;28;19957;-63
2022/03/31 05:06:42;;;;;;;;;;;;;;;;;;5009900;28;19926;-67
2022/03/31 05:09:10;;;;;;;;;;;;;;;;;;5007800;28;19988;-72
2022/03/31 05:11:36;;;;;;;;;;;;;;;;;;5009480;28;19926;-73
2022/03/31 05:14:02;;;;;;;;;;;;;;;;;;5006281;28;19936;-72
2022/03/31 05:16:29;;;;;;;;;;;;;;;;;;5010539;28;19948;-73
2022/03/31 05:18:55;;;;;;;;;;;;;;;;;;5008788;28;19929;-72
2022/03/31 05:21:21;;;;;;;;;;;;;;;;;;5009473;28;19933;-72
2022/03/31 05:23:48;;;;;;;;;;;;;;;;;;4663765;28;9999841;-72
2022/03/31 05:26:14;;;;;;;;;;;;;;;;;;5004886;28;19934;-73
2022/03/31 05:28:41;;;;;;;;;;;;;;;;;;5004738;28;20390;-71
2022/03/31 05:31:07;;;;;;;;;;;;;;;;;;5001859;28;19952;-72
2022/03/31 05:33:34;;;;;;;;;;;;;;;;;;5007636;28;20021;-70
2022/03/31 05:36:01;;;;;;;;;;;;;;;;;;5008083;28;19925;-73
2022/03/31 05:38:27;;;;;;;;;;;;;;;;;;5006237;28;19929;-73
2022/03/31 05:40:53;;;;;;;;;;;;;;;;;;5007688;28;19929;-72
2022/03/31 05:43:21;;;;;;;;;;;;;;;;;;5005860;28;19936;-72
2022/03/31 05:45:47;;;;;;;;;;;;;;;;;;5007411;28;20332;-74
2022/03/31 05:48:13;;;;;;;;;;;;;;;;;;5005556;28;19979;-72
2022/03/31 05:50:39;;;;;;;;;;;;;;;;;;5004592;28;20084;-74
2022/03/31 05:53:06;;;;;;;;;;;;;;;;;;5007139;28;19925;-72
2022/03/31 05:55:32;;;;;;;;;;;;;;;;;;5006814;28;19945;-71
2022/03/31 05:57:58;;;;;;;;;;;;;;;;;;5004198;28;20116;-71
2022/03/31 06:00:25;;;;;;;;;;;;;;;;;;5006465;28;19934;-71
2022/03/31 06:02:53;;;;;;;;;;;;;;;;;;5006202;28;19929;-72
2022/03/31 06:05:19;;;;;;;;;;;;;;;;;;5007243;28;19936;-71
2022/03/31 06:07:45;;;;;;;;;;;;;;;;;;5006195;28;19933;-71
2022/03/31 06:10:11;;;;;;;;;;;;;;;;;;5007314;28;19929;-71
2022/03/31 06:12:37;;;;;;;;;;;;;;;;;;5006175;28;19930;-71
2022/03/31 06:15:03;;;;;;;;;;;;;;;;;;5006985;28;19929;-71
2022/03/31 06:17:30;;;;;;;;;;;;;;;;;;5006990;28;19941;-71
2022/03/31 06:19:56;;;;;;;;;;;;;;;;;;5004376;28;19930;-70
2022/03/31 06:22:22;;;;;;;;;;;;;;;;;;5006825;28;20329;-70
2022/03/31 06:24:48;;;;;;;;;;;;;;;;;;5003715;28;19936;-70
2022/03/31 06:27:14;;;;;;;;;;;;;;;;;;5006671;28;19937;-70
2022/03/31 06:29:45;;;;;;;;;;;;;;;;;;5006112;28;19929;-70
2022/03/31 06:32:11;;;;;;;;;;;;;;;;;;5006431;28;20551;-71
2022/03/31 06:34:37;;;;;;;;;;;;;;;;;;5007636;28;19926;-71
2022/03/31 06:37:08;;;;;;;;;;;;;;;;;;5010677;28;19925;-72
2022/03/31 06:39:34;;;;;;;;;;;;;;;;;;5010651;28;19934;-70
2022/03/31 06:42:00;;;;;;;;;;;;;;;;;;5006217;28;19936;-70
2022/03/31 06:44:27;;;;;;;;;;;;;;;;;;5007635;28;20309;-71
2022/03/31 06:46:53;;;;;;;;;;;;;;;;;;5010698;28;19929;-71
2022/03/31 06:49:21;;;;;;;;;;;;;;;;;;5009608;28;19934;-71
2022/03/31 06:51:47;;;;;;;;;;;;;;;;;;5010255;28;19926;-72
2022/03/31 06:54:13;;;;;;;;;;;;;;;;;;5008451;28;19926;-71
2022/03/31 06:56:39;;;;;;;;;;;;;;;;;;5009841;28;19932;-71
2022/03/31 06:59:05;;;;;;;;;;;;;;;;;;5008513;28;20000;-71
2022/03/31 07:01:31;;;;;;;;;;;;;;;;;;5010145;28;19926;-66
2022/03/31 07:03:58;;;;;;;;;;;;;;;;;;4662530;28;10000190;-67
2022/03/31 07:06:24;;;;;;;;;;;;;;;;;;5010990;28;19949;-67
2022/03/31 07:08:50;;;;;;;;;;;;;;;;;;5010533;28;20307;-67
2022/03/31 07:11:16;;;;;;;;;;;;;;;;;;5009505;28;19925;-68
2022/03/31 07:13:43;;;;;;;;;;;;;;;;;;5007998;28;19948;-67
2022/03/31 07:16:09;;;;;;;;;;;;;;;;;;5008516;28;19985;-68
2022/03/31 07:18:35;;;;;;;;;;;;;;;;;;5010038;28;20465;-66
2022/03/31 07:21:02;;;;;;;;;;;;;;;;;;5009991;28;19930;-68
2022/03/31 07:23:28;;;;;;;;;;;;;;;;;;5008203;28;19929;-68
2022/03/31 07:25:54;;;;;;;;;;;;;;;;;;5004699;28;19933;-67
2022/03/31 07:28:21;;;;;;;;;;;;;;;;;;5008337;28;19976;-69
2022/03/31 07:30:48;;;;;;;;;;;;;;;;;;5009322;28;19925;-67
2022/03/31 07:33:15;;;;;;;;;;;;;;;;;;5010307;28;19929;-67
2022/03/31 07:35:42;;;;;;;;;;;;;;;;;;5008365;28;19929;-66
2022/03/31 07:38:08;;;;;;;;;;;;;;;;;;5009701;28;19926;-66
2022/03/31 07:40:36;;;;;;;;;;;;;;;;;;5009097;28;20065;-66
2022/03/31 07:43:02;;;;;;;;;;;;;;;;;;5010280;28;19925;-67
2022/03/31 07:45:29;;;;;;;;;;;;;;;;;;5006364;28;19960;-67
2022/03/31 07:47:55;;;;;;;;;;;;;;;;;;5009653;28;20257;-69
2022/03/31 07:50:21;;;;;;;;;;;;;;;;;;5009093;28;19941;-66
2022/03/31 07:52:48;;;;;;;;;;;;;;;;;;5009068;28;19936;-66
2022/03/31 07:55:14;;;;;;;;;;;;;;;;;;5006489;28;19930;-66
2022/03/31 07:57:40;;;;;;;;;;;;;;;;;;5009441;28;19930;-68
2022/03/31 08:00:06;;;;;;;;;;;;;;;;;;5007833;28;20393;-67
2022/03/31 08:02:32;;;;;;;;;;;;;;;;;;5009390;28;20405;-69
2022/03/31 08:04:58;;;;;;;;;;;;;;;;;;5006800;28;19945;-66
2022/03/31 08:07:24;;;;;;;;;;;;;;;;;;5009352;28;19929;-68
2022/03/31 08:09:51;;;;;;;;;;;;;;;;;;5008779;28;19936;-68
2022/03/31 08:12:17;;;;;;;;;;;;;;;;;;5008958;28;19936;-69
2022/03/31 08:14:43;;;;;;;;;;;;;;;;;;5007362;28;20308;-68
2022/03/31 08:17:10;;;;;;;;;;;;;;;;;;5007544;28;20441;-71
2022/03/31 08:19:36;;;;;;;;;;;;;;;;;;5009362;28;19943;-67
2022/03/31 08:22:02;;;;;;;;;;;;;;;;;;5003021;28;19925;-70
2022/03/31 08:24:28;;;;;;;;;;;;;;;;;;5007142;28;20620;-67
2022/03/31 08:26:54;;;;;;;;;;;;;;;;;;5008260;28;20390;-68
2022/03/31 08:29:21;;;;;;;;;;;;;;;;;;5007032;28;19926;-68
2022/03/31 08:31:47;;;;;;;;;;;;;;;;;;5008554;28;19964;-68
2022/03/31 08:34:13;;;;;;;;;;;;;;;;;;5008919;28;19947;-68
2022/03/31 08:36:39;;;;;;;;;;;;;;;;;;5007467;28;19926;-69
2022/03/31 08:39:05;;;;;;;;;;;;;;;;;;5008777;28;19926;-69
2022/03/31 08:41:32;;;;;;;;;;;;;;;;;;5008054;28;19929;-69
2022/03/31 08:43:58;;;;;;;;;;;;;;;;;;5008563;28;19933;-66
2022/03/31 08:46:24;;;;;;;;;;;;;;;;;;5005928;28;19933;-66
2022/03/31 08:48:50;;;;;;;;;;;;;;;;;;5006248;28;19932;-67
2022/03/31 08:51:16;;;;;;;;;;;;;;;;;;5008461;28;19937;-68
2022/03/31 08:53:42;;;;;;;;;;;;;;;;;;5009559;28;19984;-67
2022/03/31 08:56:08;;;;;;;;;;;;;;;;;;5005530;28;20105;-67
2022/03/31 08:58:35;;;;;;;;;;;;;;;;;;5009260;28;19960;-68
2022/03/31 09:01:01;;;;;;;;;;;;;;;;;;5006409;28;19941;-67
2022/03/31 09:03:27;;;;;;;;;;;;;;;;;;5008190;28;19925;-67
2022/03/31 09:05:53;;;;;;;;;;;;;;;;;;5000010;28;19933;-68
2022/03/31 09:08:24;;;;;;;;;;;;;;;;;;5008491;28;20366;-67
2022/03/31 09:10:52;;;;;;;;;;;;;;;;;;5008284;28;19933;-66
2022/03/31 09:13:18;;;;;;;;;;;;;;;;;;5008200;28;19929;-67
2022/03/31 09:15:44;;;;;;;;;;;;;;;;;;5005815;28;19937;-66
2022/03/31 09:18:11;;;;;;;;;;;;;;;;;;5007424;28;19929;-67
2022/03/31 09:20:37;;;;;;;;;;;;;;;;;;5008071;28;19949;-66
2022/03/31 09:23:03;;;;;;;;;;;;;;;;;;5008035;28;19926;-65
2022/03/31 09:25:32;;;;;;;;;;;;;;;;;;5006354;28;19945;-66
2022/03/31 09:28:00;;;;;;;;;;;;;;;;;;5008370;28;19925;-65
2022/03/31 09:30:26;;;;;;;;;;;;;;;;;;5006635;28;19933;-65
2022/03/31 09:32:52;;;;;;;;;;;;;;;;;;5007966;28;19925;-65
2022/03/31 09:35:20;;;;;;;;;;;;;;;;;;5007496;28;20506;-65
2022/03/31 09:37:48;;;;;;;;;;;;;;;;;;5006749;28;19933;-66
2022/03/31 09:40:14;;;;;;;;;;;;;;;;;;5007212;28;20492;-65
2022/03/31 09:42:40;;;;;;;;;;;;;;;;;;5006694;28;19936;-64
2022/03/31 09:45:08;;;;;;;;;;;;;;;;;;5007157;28;19934;-63
2022/03/31 09:47:34;;;;;;;;;;;;;;;;;;5003470;28;19968;-64
2022/03/31 09:50:00;;;;;;;;;;;;;;;;;;5006490;28;19929;-64
2022/03/31 09:52:26;;;;;;;;;;;;;;;;;;5003720;28;19940;-66
2022/03/31 09:54:52;;;;;;;;;;;;;;;;;;5007504;28;19929;-64
2022/03/31 09:57:18;;;;;;;;;;;;;;;;;;5005571;28;19952;-64
2022/03/31 09:59:44;;;;;;;;;;;;;;;;;;5007162;28;19933;-65
2022/03/31 10:02:11;;;;;;;;;;;;;;;;;;5005220;28;20033;-64
2022/03/31 10:04:37;;;;;;;;;;;;;;;;;;5001108;28;19938;-64
2022/03/31 10:07:03;;;;;;;;;;;;;;;;;;5002740;28;20334;-63
2022/03/31 10:09:31;;;;;;;;;;;;;;;;;;5009806;28;19938;-65
2022/03/31 10:11:57;;;;;;;;;;;;;;;;;;5010292;28;19929;-65
2022/03/31 10:14:23;;;;;;;;;;;;;;;;;;5010095;28;19988;-64
2022/03/31 10:16:50;;;;;;;;;;;;;;;;;;5006914;28;19961;-64
2022/03/31 10:19:16;;;;;;;;;;;;;;;;;;5010695;28;19934;-67
2022/03/31 10:21:42;;;;;;;;;;;;;;;;;;5010606;28;20449;-65
2022/03/31 10:26:52;;;;;;;;;;;;;;;;;;5008568;28;19963;-65
2022/03/31 10:29:18;;;;;;;;;;;;;;;;;;5008557;28;19937;-65
2022/03/31 10:31:45;;;;;;;;;;;;;;;;;;5006304;28;19929;-65
2022/03/31 10:34:11;;;;;;;;;;;;;;;;;;5008191;28;19933;-65
2022/03/31 10:36:38;;;;;;;;;;;;;;;;;;5007256;28;20421;-65
2022/03/31 10:39:05;;;;;;;;;;;;;;;;;;5010291;28;19930;-65
2022/03/31 10:41:31;;;;;;;;;;;;;;;;;;5005752;28;19968;-64
2022/03/31 10:43:58;;;;;;;;;;;;;;;;;;5008070;28;19929;-65
2022/03/31 10:46:24;;;;;;;;;;;;;;;;;;5008801;28;19926;-66
2022/03/31 10:48:51;;;;;;;;;;;;;;;;;;5009049;28;19925;-66
2022/03/31 10:51:17;;;;;;;;;;;;;;;;;;5009727;28;20593;-64
2022/03/31 10:53:43;;;;;;;;;;;;;;;;;;5008548;28;20339;-64
2022/03/31 10:56:09;;;;;;;;;;;;;;;;;;5010160;28;19929;-66
2022/03/31 10:58:35;;;;;;;;;;;;;;;;;;5009468;28;19933;-64
2022/03/31 11:01:02;;;;;;;;;;;;;;;;;;5009293;28;20669;-64
2022/03/31 11:03:28;;;;;;;;;;;;;;;;;;5007930;28;19929;-65
2022/03/31 11:05:56;;;;;;;;;;;;;;;;;;5008903;28;19941;-66
2022/03/31 11:08:22;;;;;;;;;;;;;;;;;;5009413;28;19965;-64
2022/03/31 11:10:49;;;;;;;;;;;;;;;;;;5009595;28;19929;-69
2022/03/31 11:13:17;;;;;;;;;;;;;;;;;;5006012;28;19972;-67
2022/03/31 11:15:44;;;;;;;;;;;;;;;;;;5007540;28;20398;-67
2022/03/31 11:18:10;;;;;;;;;;;;;;;;;;5006758;28;20015;-66
2022/03/31 11:20:36;;;;;;;;;;;;;;;;;;5009076;28;19974;-67
2022/03/31 11:23:03;;;;;;;;;;;;;;;;;;5008180;28;19930;-66
2022/03/31 11:25:29;;;;;;;;;;;;;;;;;;5005735;28;20350;-66
2022/03/31 11:27:56;;;;;;;;;;;;;;;;;;5009215;28;19929;-65
2022/03/31 11:30:23;;;;;;;;;;;;;;;;;;5008685;28;20311;-64
2022/03/31 11:32:49;;;;;;;;;;;;;;;;;;5007901;28;19936;-65
2022/03/31 11:35:16;;;;;;;;;;;;;;;;;;5009176;28;19940;-65
2022/03/31 11:37:42;;;;;;;;;;;;;;;;;;5009386;28;19977;-66
2022/03/31 11:40:10;;;;;;;;;;;;;;;;;;5008882;28;19930;-65
2022/03/31 11:42:36;;;;;;;;;;;;;;;;;;5007762;28;19929;-65
2022/03/31 11:45:02;;;;;;;;;;;;;;;;;;5008430;28;20143;-65
2022/03/31 11:47:30;;;;;;;;;;;;;;;;;;5007565;28;19929;-64
2022/03/31 11:49:56;;;;;;;;;;;;;;;;;;5008757;28;19930;-65
2022/03/31 11:52:22;;;;;;;;;;;;;;;;;;5008462;28;20186;-65
2022/03/31 11:54:49;;;;;;;;;;;;;;;;;;5008628;28;20201;-67
2022/03/31 11:57:15;;;;;;;;;;;;;;;;;;5007854;28;20306;-65
2022/03/31 11:59:41;;;;;;;;;;;;;;;;;;5006780;28;19968;-65
2022/03/31 12:02:07;;;;;;;;;;;;;;;;;;5006914;28;19987;-65
2022/03/31 12:04:33;;;;;;;;;;;;;;;;;;5006342;28;19956;-63
2022/03/31 12:07:00;;;;;;;;;;;;;;;;;;5008500;28;19929;-65
2022/03/31 12:09:27;;;;;;;;;;;;;;;;;;5007160;28;19933;-66
2022/03/31 12:11:53;;;;;;;;;;;;;;;;;;5008373;28;20283;-65
2022/03/31 12:14:22;;;;;;;;;;;;;;;;;;5006290;28;19926;-68
2022/03/31 12:16:49;;;;;;;;;;;;;;;;;;5007884;28;20067;-67
2022/03/31 12:19:15;;;;;;;;;;;;;;;;;;5006028;28;20406;-67
2022/03/31 12:21:41;;;;;;;;;;;;;;;;;;5008017;28;19929;-67
2022/03/31 12:24:09;;;;;;;;;;;;;;;;;;5006817;28;20147;-66
2022/03/31 12:26:36;;;;;;;;;;;;;;;;;;5007567;28;19926;-67
2022/03/31 12:29:02;;;;;;;;;;;;;;;;;;5006370;28;19951;-68
2022/03/31 12:31:29;;;;;;;;;;;;;;;;;;5007490;28;20016;-67
2022/03/31 12:33:56;;;;;;;;;;;;;;;;;;5007022;28;19937;-68
2022/03/31 12:36:23;;;;;;;;;;;;;;;;;;5007816;28;19933;-67
2022/03/31 12:38:49;;;;;;;;;;;;;;;;;;5006206;28;19933;-69
2022/03/31 12:41:15;;;;;;;;;;;;;;;;;;5002253;28;19930;-68
2022/03/31 12:43:41;;;;;;;;;;;;;;;;;;5007262;28;20339;-68
2022/03/31 12:46:07;;;;;;;;;;;;;;;;;;5007349;28;19930;-66
2022/03/31 12:48:34;;;;;;;;;;;;;;;;;;5004494;28;19930;-67
2022/03/31 12:51:00;;;;;;;;;;;;;;;;;;5008396;28;19971;-68
2022/03/31 12:53:26;;;;;;;;;;;;;;;;;;5008162;28;19930;-66
2022/03/31 12:55:52;;;;;;;;;;;;;;;;;;5009099;28;19930;-68
2022/03/31 12:58:18;;;;;;;;;;;;;;;;;;5009719;28;19940;-68
2022/03/31 13:00:44;;;;;;;;;;;;;;;;;;5006608;28;19936;-67
2022/03/31 13:03:10;;;;;;;;;;;;;;;;;;5007793;28;19930;-66
2022/03/31 13:05:37;;;;;;;;;;;;;;;;;;5005052;28;19952;-67
2022/03/31 13:08:03;;;;;;;;;;;;;;;;;;5008089;28;19930;-67
2022/03/31 13:10:29;;;;;;;;;;;;;;;;;;5005601;28;19933;-67
2022/03/31 13:12:56;;;;;;;;;;;;;;;;;;5007508;28;19936;-67
2022/03/31 13:15:22;;;;;;;;;;;;;;;;;;5007051;28;19992;-67
2022/03/31 13:17:48;;;;;;;;;;;;;;;;;;5007542;28;20368;-69
2022/03/31 13:20:15;;;;;;;;;;;;;;;;;;5004820;28;19929;-66
2022/03/31 13:22:41;;;;;;;;;;;;;;;;;;5007060;28;19929;-66
2022/03/31 13:25:07;;;;;;;;;;;;;;;;;;5006953;28;20305;-67
2022/03/31 13:27:33;;;;;;;;;;;;;;;;;;5004765;28;19932;-68
2022/03/31 13:29:59;;;;;;;;;;;;;;;;;;5004950;28;19929;-67
2022/03/31 13:32:25;;;;;;;;;;;;;;;;;;5006875;28;19932;-66
2022/03/31 13:34:52;;;;;;;;;;;;;;;;;;5005208;28;20417;-66
2022/03/31 13:37:18;;;;;;;;;;;;;;;;;;5006689;28;19932;-66
2022/03/31 13:39:44;;;;;;;;;;;;;;;;;;5003548;28;19930;-66
2022/03/31 13:42:10;;;;;;;;;;;;;;;;;;5005387;28;20374;-68
2022/03/31 13:44:36;;;;;;;;;;;;;;;;;;5006638;28;19932;-67
2022/03/31 13:47:03;;;;;;;;;;;;;;;;;;5003436;28;19925;-66
2022/03/31 13:49:30;;;;;;;;;;;;;;;;;;5001468;28;19937;-65
2022/03/31 13:51:56;;;;;;;;;;;;;;;;;;5006334;28;19932;-67
2022/03/31 13:54:24;;;;;;;;;;;;;;;;;;5007164;28;19930;-66
2022/03/31 13:56:51;;;;;;;;;;;;;;;;;;5006770;28;20674;-65
2022/03/31 14:02:01;;;;;;;;;;;;;;;;;;4999773;28;20059;-65
2022/03/31 14:04:27;;;;;;;;;;;;;;;;;;4999016;28;19933;-64
2022/03/31 14:06:53;;;;;;;;;;;;;;;;;;5005583;28;19929;-65
2022/03/31 14:09:19;;;;;;;;;;;;;;;;;;4998776;28;20313;-64
2022/03/31 14:11:45;;;;;;;;;;;;;;;;;;5000385;28;20338;-63
2022/03/31 14:14:13;;;;;;;;;;;;;;;;;;5004719;28;19937;-65
2022/03/31 14:16:40;;;;;;;;;;;;;;;;;;5001433;28;19929;-64
2022/03/31 14:19:06;;;;;;;;;;;;;;;;;;5007441;28;20290;-65
2022/03/31 14:21:32;;;;;;;;;;;;;;;;;;5001892;28;19952;-67
2022/03/31 14:23:59;;;;;;;;;;;;;;;;;;5002467;28;19936;-70
2022/03/31 14:26:25;;;;;;;;;;;;;;;;;;5005069;28;19925;-71
2022/03/31 14:28:51;;;;;;;;;;;;;;;;;;5005266;28;19936;-71
2022/03/31 14:31:17;;;;;;;;;;;;;;;;;;5005043;28;19933;-71
2022/03/31 14:33:43;;;;;;;;;;;;;;;;;;5006877;28;19930;-70
2022/03/31 14:36:09;;;;;;;;;;;;;;;;;;5004655;28;19929;-71
2022/03/31 14:38:36;;;;;;;;;;;;;;;;;;5003216;28;19933;-73
2022/03/31 14:41:09;;;;;;;;;;;;;;;;;;5006368;28;19958;-72
2022/03/31 14:43:35;;;;;;;;;;;;;;;;;;5005132;28;20375;-71
2022/03/31 14:46:01;;;;;;;;;;;;;;;;;;4999038;28;19941;-74
2022/03/31 14:48:27;;;;;;;;;;;;;;;;;;5006504;28;19932;-71
2022/03/31 14:50:53;;;;;;;;;;;;;;;;;;5004876;28;20481;-70
2022/03/31 14:53:20;;;;;;;;;;;;;;;;;;5005312;28;19948;-73
2022/03/31 14:55:46;;;;;;;;;;;;;;;;;;5002982;28;19932;-70
2022/03/31 14:58:12;;;;;;;;;;;;;;;;;;5005249;28;20051;-71
2022/03/31 15:00:38;;;;;;;;;;;;;;;;;;5004751;28;19960;-71
2022/03/31 15:03:04;;;;;;;;;;;;;;;;;;5007464;28;20032;-70
2022/03/31 15:05:31;;;;;;;;;;;;;;;;;;5007975;28;19937;-72
2022/03/31 15:07:58;;;;;;;;;;;;;;;;;;5010487;28;20024;-70
2022/03/31 15:15:54;;;;;;;;;;;;;;;;;;5002443;28;20222;-71
2022/03/31 15:18:20;;;;;;;;;;;;;;;;;;5006071;28;19929;-70
2022/03/31 15:20:46;;;;;;;;;;;;;;;;;;5013244;28;20390;-69
2022/03/31 15:23:13;;;;;;;;;;;;;;;;;;5007035;28;19929;-71
2022/03/31 15:25:39;;;;;;;;;;;;;;;;;;5007518;28;19930;-71
2022/03/31 15:28:05;;;;;;;;;;;;;;;;;;5007919;28;19929;-70
2022/03/31 15:30:31;;;;;;;;;;;;;;;;;;5008231;28;19936;-71
2022/03/31 15:32:58;;;;;;;;;;;;;;;;;;4999506;28;19937;-68
2022/03/31 15:35:24;;;;;;;;;;;;;;;;;;5004536;28;19960;-70
2022/03/31 15:37:50;;;;;;;;;;;;;;;;;;5012815;28;20365;-71
2022/03/31 15:40:16;;;;;;;;;;;;;;;;;;5005445;28;19929;-70
2022/03/31 15:42:42;;;;;;;;;;;;;;;;;;5011094;28;19933;-73
2022/03/31 15:45:08;;;;;;;;;;;;;;;;;;5006224;28;19941;-69
2022/03/31 15:47:35;;;;;;;;;;;;;;;;;;5007010;28;19947;-69
2022/03/31 15:50:01;;;;;;;;;;;;;;;;;;5008270;28;19925;-70
2022/03/31 15:52:27;;;;;;;;;;;;;;;;;;5009119;28;19934;-70
2022/03/31 15:54:53;;;;;;;;;;;;;;;;;;5009261;28;19936;-70
2022/03/31 15:57:19;;;;;;;;;;;;;;;;;;5001920;28;19941;-70
2022/03/31 15:59:45;;;;;;;;;;;;;;;;;;5005073;28;19925;-69
2022/03/31 16:02:11;;;;;;;;;;;;;;;;;;5000045;28;19937;-69
2022/03/31 16:04:37;;;;;;;;;;;;;;;;;;5006038;28;19926;-71
2022/03/31 16:07:04;;;;;;;;;;;;;;;;;;5007575;28;19929;-72
2022/03/31 16:09:30;;;;;;;;;;;;;;;;;;5010495;28;19933;-71
2022/03/31 16:11:56;;;;;;;;;;;;;;;;;;5000462;28;19930;-69
2022/03/31 16:14:22;;;;;;;;;;;;;;;;;;5010557;28;19936;-70
2022/03/31 16:16:48;;;;;;;;;;;;;;;;;;5012416;28;19944;-70
2022/03/31 16:19:16;;;;;;;;;;;;;;;;;;5014004;28;19932;-71
2022/03/31 16:21:42;;;;;;;;;;;;;;;;;;5017949;28;20008;-69
2022/03/31 16:24:08;;;;;;;;;;;;;;;;;;4662655;28;10000554;-69
2022/03/31 16:26:34;;;;;;;;;;;;;;;;;;5018563;28;19932;-70
2022/03/31 16:29:00;;;;;;;;;;;;;;;;;;5016941;23;19930;-70
2022/03/31 16:31:27;;;;;;;;;;;;;;;;;;5005172;28;20302;-70
2022/03/31 16:33:53;;;;;;;;;;;;;;;;;;5002204;28;19929;-69
2022/03/31 16:36:19;;;;;;;;;;;;;;;;;;5003712;28;19930;-69
2022/03/31 16:38:45;;;;;;;;;;;;;;;;;;5004320;28;19925;-69
2022/03/31 16:41:12;;;;;;;;;;;;;;;;;;4998954;28;21588;-69
2022/03/31 16:43:38;;;;;;;;;;;;;;;;;;5004309;28;19926;-69
2022/03/31 16:46:04;;;;;;;;;;;;;;;;;;4994733;28;19926;-69
2022/03/31 16:48:30;;;;;;;;;;;;;;;;;;4998980;28;20016;-68
2022/03/31 16:50:57;;;;;;;;;;;;;;;;;;4996627;28;19930;-70
2022/03/31 16:53:23;;;;;;;;;;;;;;;;;;4993947;28;19971;-69